createdAt,value
2022-10-11T00:00:19.987Z,12.09
2022-10-11T00:05:25.883Z,12.09
2022-10-11T00:10:58.237Z,12.01
2022-10-11T00:16:16.472Z,11.90
2022-10-11T00:21:39.503Z,11.88
2022-10-11T00:27:03.177Z,11.92
2022-10-11T00:32:26.131Z,11.92
2022-10-11T00:37:45.112Z,11.84
2022-10-11T00:43:16.582Z,11.79
2022-10-11T00:48:44.093Z,11.71
2022-10-11T00:54:08.991Z,11.71
2022-10-11T00:59:17.932Z,11.72
2022-10-11T01:04:22.004Z,11.83
2022-10-11T01:09:29.608Z,11.81
2022-10-11T01:15:01.781Z,11.73
2022-10-11T01:20:28.618Z,11.71
2022-10-11T01:25:41.719Z,11.62
2022-10-11T01:30:48.378Z,11.55
2022-10-11T01:35:58.631Z,11.56
2022-10-11T01:41:09.240Z,11.55
2022-10-11T01:46:16.155Z,11.46
2022-10-11T01:51:23.641Z,11.28
2022-10-11T01:57:21.272Z,11.08
2022-10-11T02:03:14.253Z,11.00
2022-10-11T02:08:45.593Z,10.79
2022-10-11T02:14:13.034Z,10.74
2022-10-11T02:19:40.340Z,10.71
2022-10-11T02:25:03.269Z,10.88
2022-10-11T02:30:25.812Z,10.90
2022-10-11T02:35:49.426Z,10.79
2022-10-11T02:41:17.557Z,10.92
2022-10-11T02:46:37.517Z,10.96
2022-10-11T02:52:00.341Z,10.86
2022-10-11T02:57:19.996Z,10.96
2022-10-11T03:02:42.936Z,10.99
2022-10-11T03:08:05.907Z,10.85
2022-10-11T03:13:25.741Z,10.82
2022-10-11T03:18:49.562Z,10.70
2022-10-11T03:23:53.857Z,10.70
2022-10-11T03:28:58.328Z,10.62
2022-10-11T03:34:03.783Z,10.61
2022-10-11T03:39:07.924Z,10.45
2022-10-11T03:44:12.022Z,10.31
2022-10-11T03:49:18.178Z,10.18
2022-10-11T03:54:31.670Z,10.12
2022-10-11T03:59:35.855Z,10.10
2022-10-11T04:04:41.357Z,9.96
2022-10-11T04:09:45.544Z,9.95
2022-10-11T04:14:49.590Z,9.90
2022-10-11T04:20:12.387Z,9.89
2022-10-11T04:25:41.388Z,9.90
2022-10-11T04:31:05.414Z,9.97
2022-10-11T04:36:24.557Z,10.09
2022-10-11T04:41:48.015Z,10.14
2022-10-11T04:47:09.738Z,10.18
2022-10-11T04:52:35.208Z,10.16
2022-10-11T04:58:01.615Z,10.25
2022-10-11T05:03:23.153Z,10.38
2022-10-11T05:08:27.605Z,10.46
2022-10-11T05:13:57.033Z,10.39
2022-10-11T05:19:03.607Z,10.54
2022-10-11T05:24:08.620Z,10.45
2022-10-11T05:29:15.578Z,10.66
2022-10-11T05:34:21.738Z,10.69
2022-10-11T05:39:26.354Z,10.76
2022-10-11T05:44:31.019Z,10.99
2022-10-11T05:49:36.320Z,11.06
2022-10-11T05:54:40.289Z,10.90
2022-10-11T05:59:44.487Z,11.06
2022-10-11T06:04:49.842Z,11.08
2022-10-11T06:09:54.196Z,11.12
2022-10-11T06:14:58.183Z,11.15
2022-10-11T06:20:03.961Z,11.25
2022-10-11T06:25:08.858Z,11.30
2022-10-11T06:30:13.729Z,11.33
2022-10-11T06:35:19.109Z,11.62
2022-10-11T06:40:23.009Z,11.58
2022-10-11T06:45:27.049Z,11.74
2022-10-11T06:50:57.936Z,12.12
2022-10-11T06:56:03.613Z,12.17
2022-10-11T07:01:10.277Z,11.99
2022-10-11T07:06:17.650Z,12.00
2022-10-11T07:11:23.606Z,11.89
2022-10-11T07:16:29.030Z,11.98
2022-10-11T07:21:35.758Z,11.94
2022-10-11T07:26:39.742Z,11.91
2022-10-11T07:31:44.735Z,11.85
2022-10-11T07:36:50.187Z,12.00
2022-10-11T07:41:54.150Z,12.05
2022-10-11T07:46:58.141Z,11.88
2022-10-11T07:52:03.583Z,11.86
2022-10-11T07:57:39.485Z,11.71
2022-10-11T08:03:20.770Z,11.59
2022-10-11T08:08:58.500Z,11.83
2022-10-11T08:14:42.711Z,12.02
2022-10-11T08:20:15.471Z,12.49
2022-10-11T08:26:04.425Z,12.77
2022-10-11T08:31:40.294Z,13.15
2022-10-11T08:37:23.402Z,13.41
2022-10-11T08:43:06.343Z,13.45
2022-10-11T08:48:35.062Z,13.53
2022-10-11T08:54:14.035Z,14.02
2022-10-11T09:00:06.993Z,14.59
2022-10-11T09:05:37.275Z,14.88
2022-10-11T09:10:56.097Z,14.52
2022-10-11T09:16:12.050Z,13.95
2022-10-11T09:21:31.542Z,13.89
2022-10-11T09:26:42.119Z,14.68
2022-10-11T09:31:49.433Z,14.64
2022-10-11T09:36:58.863Z,15.02
2022-10-11T09:42:05.514Z,15.23
2022-10-11T09:47:15.689Z,15.11
2022-10-11T09:52:22.966Z,15.69
2022-10-11T09:57:28.106Z,15.54
2022-10-11T10:02:39.569Z,16.10
2022-10-11T10:13:23.969Z,16.81
2022-10-11T10:18:33.996Z,16.41
2022-10-11T10:23:38.933Z,16.19
2022-10-11T10:28:59.088Z,17.66
2022-10-11T10:34:06.088Z,17.97
2022-10-11T10:39:26.236Z,19.00
2022-10-11T10:44:31.680Z,17.82
2022-10-11T10:49:53.574Z,16.58
2022-10-11T10:55:04.751Z,16.92
2022-10-11T11:00:16.911Z,16.51
2022-10-11T11:05:42.273Z,16.90
2022-10-11T11:10:56.257Z,17.28
2022-10-11T11:16:14.091Z,17.40
2022-10-11T11:21:30.092Z,16.94
2022-10-11T11:26:44.273Z,16.82
2022-10-11T11:32:10.647Z,17.26
2022-10-11T11:37:24.801Z,16.88
2022-10-11T11:42:38.189Z,16.26
2022-10-11T11:48:15.337Z,16.36
2022-10-11T11:53:28.996Z,16.58
2022-10-11T11:58:42.690Z,15.62
2022-10-11T12:03:54.264Z,15.59
2022-10-11T12:09:09.178Z,15.32
2022-10-11T12:14:27.731Z,15.15
2022-10-11T12:19:33.616Z,15.14
2022-10-11T12:24:56.277Z,15.39
2022-10-11T12:30:00.386Z,15.65
2022-10-11T12:35:49.109Z,15.64
2022-10-11T12:40:57.064Z,15.97
2022-10-11T12:46:33.242Z,15.86
2022-10-11T12:51:44.765Z,14.99
2022-10-11T12:56:57.622Z,15.09
2022-10-11T13:02:07.284Z,15.14
2022-10-11T13:07:23.949Z,15.18
2022-10-11T13:12:41.715Z,15.12
2022-10-11T13:17:46.071Z,15.38
2022-10-11T13:22:53.409Z,15.43
2022-10-11T13:27:57.809Z,15.27
2022-10-11T13:33:03.015Z,15.49
2022-10-11T13:38:10.207Z,15.13
2022-10-11T13:43:15.810Z,15.13
2022-10-11T13:48:19.919Z,14.96
2022-10-11T13:53:26.551Z,14.79
2022-10-11T13:58:36.256Z,14.77
2022-10-11T14:03:44.740Z,14.69
2022-10-11T14:08:53.078Z,13.92
2022-10-11T14:13:57.427Z,13.88
2022-10-11T14:19:11.367Z,13.43
2022-10-11T14:24:20.981Z,13.37
2022-10-11T14:29:36.863Z,13.38
2022-10-11T14:34:41.113Z,13.32
2022-10-11T14:39:47.751Z,13.34
2022-10-11T14:44:56.801Z,13.28
2022-10-11T14:50:03.889Z,13.43
2022-10-11T14:55:10.385Z,13.47
2022-10-11T15:00:20.364Z,13.48
2022-10-11T15:05:31.152Z,13.46
2022-10-11T15:10:40.688Z,13.46
2022-10-11T15:15:45.405Z,13.44
2022-10-11T15:20:49.509Z,13.44
2022-10-11T15:25:55.699Z,13.24
2022-10-11T15:31:00.495Z,13.15
2022-10-11T15:36:05.093Z,13.13
2022-10-11T15:41:14.850Z,12.95
2022-10-11T15:46:29.571Z,12.79
2022-10-11T15:51:33.880Z,12.67
2022-10-11T15:56:45.450Z,12.54
2022-10-11T16:01:49.738Z,12.43
2022-10-11T16:06:53.756Z,12.47
2022-10-11T16:11:59.192Z,12.45
2022-10-11T16:17:05.802Z,12.37
2022-10-11T16:22:12.132Z,12.30
2022-10-11T16:27:35.200Z,12.29
2022-10-11T16:32:54.173Z,12.26
2022-10-11T16:38:23.177Z,12.16
2022-10-11T16:43:28.847Z,12.23
2022-10-11T16:48:32.949Z,12.19
2022-10-11T16:53:46.711Z,12.12
2022-10-11T16:58:58.444Z,12.15
2022-10-11T17:04:04.315Z,12.11
2022-10-11T17:09:09.232Z,12.19
2022-10-11T17:14:16.075Z,12.18
2022-10-11T17:19:24.413Z,12.07
2022-10-11T17:24:29.205Z,12.07
2022-10-11T17:29:37.548Z,12.06
2022-10-11T17:34:41.525Z,12.04
2022-10-11T17:39:45.545Z,11.95
2022-10-11T17:44:50.971Z,12.00
2022-10-11T17:49:54.954Z,12.01
2022-10-11T17:54:58.877Z,11.86
2022-10-11T18:00:06.270Z,11.76
2022-10-11T18:05:14.347Z,11.71
2022-10-11T18:10:20.372Z,11.66
2022-10-11T18:15:43.649Z,11.59
2022-10-11T18:21:03.517Z,11.57
2022-10-11T18:26:45.497Z,11.50
2022-10-11T18:32:35.368Z,11.56
2022-10-11T18:37:46.874Z,11.57
2022-10-11T18:42:55.516Z,11.62
2022-10-11T18:48:02.092Z,11.60
2022-10-11T18:53:17.935Z,11.60
2022-10-11T18:58:22.100Z,11.73
2022-10-11T19:03:30.334Z,11.73
2022-10-11T19:08:38.768Z,11.64
2022-10-11T19:13:47.671Z,11.62
2022-10-11T19:18:53.947Z,11.67
2022-10-11T19:23:58.285Z,11.67
2022-10-11T19:29:04.684Z,11.62
2022-10-11T19:34:12.004Z,11.72
2022-10-11T19:39:16.472Z,11.70
2022-10-11T19:44:21.125Z,11.54
2022-10-11T19:49:27.029Z,11.40
2022-10-11T19:54:32.198Z,11.39
2022-10-11T19:59:36.268Z,11.33
2022-10-11T20:04:52.524Z,11.30
2022-10-11T20:09:56.922Z,11.18
2022-10-11T20:15:01.726Z,11.17
2022-10-11T20:20:10.216Z,11.16
2022-10-11T20:25:14.485Z,11.07
2022-10-11T20:30:21.353Z,11.13
2022-10-11T20:35:26.835Z,11.15
2022-10-11T20:40:31.411Z,11.09
2022-10-11T20:45:35.436Z,11.13
2022-10-11T20:50:46.154Z,11.06
2022-10-11T20:55:50.630Z,11.02
2022-10-11T21:00:54.885Z,11.06
2022-10-11T21:06:01.110Z,11.04
2022-10-11T21:11:08.405Z,11.10
2022-10-11T21:16:15.729Z,11.03
2022-10-11T21:21:21.878Z,11.01
2022-10-11T21:26:27.411Z,10.99
2022-10-11T21:31:34.333Z,10.95
2022-10-11T21:36:49.027Z,10.87
2022-10-11T21:41:57.861Z,10.82
2022-10-11T21:47:06.910Z,10.81
2022-10-11T21:52:13.269Z,10.87
2022-10-11T21:57:20.887Z,10.91
2022-10-11T22:02:30.266Z,10.91
2022-10-11T22:07:36.415Z,10.86
2022-10-11T22:12:40.761Z,10.83
2022-10-11T22:17:44.970Z,10.82
2022-10-11T22:22:51.677Z,10.83
2022-10-11T22:27:56.140Z,10.77
2022-10-11T22:33:00.881Z,10.88
2022-10-11T22:38:07.487Z,10.92
2022-10-11T22:43:11.512Z,10.87
2022-10-11T22:48:15.603Z,10.86
2022-10-11T22:53:21.143Z,10.84
2022-10-11T22:58:25.912Z,10.81
2022-10-11T23:03:29.939Z,10.86
2022-10-11T23:08:36.883Z,10.80
2022-10-11T23:13:40.945Z,10.75
2022-10-11T23:18:45.199Z,10.81
2022-10-11T23:23:54.136Z,10.89
2022-10-11T23:28:58.134Z,10.91
2022-10-11T23:34:02.271Z,10.87
2022-10-11T23:39:08.238Z,10.84
2022-10-11T23:44:12.417Z,10.82
2022-10-11T23:49:16.614Z,10.79
2022-10-11T23:54:22.311Z,10.78
2022-10-11T23:59:26.461Z,10.68
